Time;durP1;ratioP1;P1;durP2;ratioP2;P2;SDS_P1;SDS_P2;PMS_P1;PMS_P2;Temp;Humidity;BMP_temperature;BMP_pressure;BME280_temperature;BME280_humidity;BME280_pressure;Samples;Min_cycle;Max_cycle;Signal;HPM_P1;HPM_P2
2024/04/01 00:01:34;;;;;;;;;;;;;;;22.62;36.53;98964.38;4212305;28;19924;-70
2024/04/01 00:03:34;;;;;;;;;;;;;;;22.62;36.44;98969.72;4212241;28;19938;-70
2024/04/01 00:05:35;;;;;;;;;;;;;;;22.64;36.36;98968.53;4211940;28;20002;-70
2024/04/01 00:07:36;;;;;;;;;;;;;;;22.63;36.43;98974.91;4212328;28;19924;-70
2024/04/01 00:09:37;;;;;;;;;;;;;;;22.62;36.55;98978.59;4212019;28;20007;-70
2024/04/01 00:11:38;;;;;;;;;;;;;;;22.63;36.56;98976.75;4212281;28;20455;-70
2024/04/01 00:13:39;;;;;;;;;;;;;;;22.62;36.26;98981.25;4212167;28;19924;-70
2024/04/01 00:15:40;;;;;;;;;;;;;;;22.62;36.60;98980.44;4212064;28;19924;-70
2024/04/01 00:17:41;;;;;;;;;;;;;;;22.61;36.72;98979.63;4212164;28;19931;-69
2024/04/01 00:19:42;;;;;;;;;;;;;;;22.60;36.67;98977.09;4195313;28;19928;-70
2024/04/01 00:21:43;;;;;;;;;;;;;;;22.59;36.58;98976.28;4211755;28;19924;-69
2024/04/01 00:23:46;;;;;;;;;;;;;;;22.59;36.75;98988.81;4212047;28;19924;-71
2024/04/01 00:25:46;;;;;;;;;;;;;;;22.60;36.32;98985.13;4215303;28;19930;-71
2024/04/01 00:27:47;;;;;;;;;;;;;;;22.59;36.30;98991.50;4215413;28;19924;-71
2024/04/01 00:29:48;;;;;;;;;;;;;;;22.60;36.52;98985.13;4215389;28;19970;-71
2024/04/01 00:31:49;;;;;;;;;;;;;;;22.61;36.32;98981.44;4215207;28;19952;-71
2024/04/01 00:33:50;;;;;;;;;;;;;;;22.59;36.58;98978.94;4215320;28;19924;-71
2024/04/01 00:35:51;;;;;;;;;;;;;;;22.61;36.31;98974.25;4214752;28;19930;-71
2024/04/01 00:37:52;;;;;;;;;;;;;;;22.61;36.59;98974.25;4215241;28;19928;-71
2024/04/01 00:39:53;;;;;;;;;;;;;;;22.61;36.63;98968.03;4215016;28;20385;-68
2024/04/01 00:41:53;;;;;;;;;;;;;;;22.61;36.55;98979.63;4215123;28;19924;-70
2024/04/01 00:43:54;;;;;;;;;;;;;;;22.61;36.54;98978.75;4214948;28;20376;-70
2024/04/01 00:45:55;;;;;;;;;;;;;;;22.59;36.43;98970.06;4214726;28;20018;-70
2024/04/01 00:47:59;;;;;;;;;;;;;;;22.58;36.44;98971.09;4215001;28;19931;-69
2024/04/01 00:50:00;;;;;;;;;;;;;;;22.56;36.40;98971.25;4214710;28;19925;-70
2024/04/01 00:52:01;;;;;;;;;;;;;;;22.58;36.52;98968.41;4214886;28;19932;-70
2024/04/01 00:54:02;;;;;;;;;;;;;;;22.57;36.71;98972.09;4197982;28;19928;-70
2024/04/01 00:56:03;;;;;;;;;;;;;;;22.57;36.27;98972.91;4214741;28;19931;-70
2024/04/01 00:58:05;;;;;;;;;;;;;;;22.59;36.57;98972.75;4197730;28;19924;-70
2024/04/01 01:00:07;;;;;;;;;;;;;;;22.58;36.51;98977.28;4214886;28;19935;-70
2024/04/01 01:02:08;;;;;;;;;;;;;;;22.58;36.46;98979.97;4214898;28;20395;-70
2024/04/01 01:04:08;;;;;;;;;;;;;;;22.59;36.58;98976.28;4214133;28;20011;-70
2024/04/01 01:06:14;;;;;;;;;;;;;;;22.59;36.52;98978.09;4214705;28;19924;-70
2024/04/01 01:08:15;;;;;;;;;;;;;;;22.60;36.43;98974.41;4214570;28;19946;-70
2024/04/01 01:10:16;;;;;;;;;;;;;;;22.60;36.37;98969.06;4197895;28;19924;-70
2024/04/01 01:12:17;;;;;;;;;;;;;;;22.58;36.26;98974.59;4214551;28;19930;-70
2024/04/01 01:14:18;;;;;;;;;;;;;;;22.59;36.15;98980.78;4214432;28;20500;-70
2024/04/01 01:16:19;;;;;;;;;;;;;;;22.57;36.50;98974.78;4214230;28;19924;-69
2024/04/01 01:18:20;;;;;;;;;;;;;;;22.54;36.57;98985.84;4213913;28;19932;-69
2024/04/01 01:20:21;;;;;;;;;;;;;;;22.54;36.37;98989.38;4214311;28;19924;-70
2024/04/01 01:22:34;;;;;;;;;;;;;;;22.54;36.37;98992.03;4197358;28;19940;-70
2024/04/01 01:24:35;;;;;;;;;;;;;;;22.57;36.26;98998.88;4214392;28;19924;-70
2024/04/01 01:26:36;;;;;;;;;;;;;;;22.57;36.33;99001.56;4197672;28;20267;-70
2024/04/01 01:28:37;;;;;;;;;;;;;;;22.57;36.55;98997.03;4214234;28;20381;-70
2024/04/01 01:30:38;;;;;;;;;;;;;;;22.58;36.30;99000.56;4214200;28;19924;-70
2024/04/01 01:32:39;;;;;;;;;;;;;;;22.58;36.26;99005.94;4213767;28;20447;-69
2024/04/01 01:34:41;;;;;;;;;;;;;;;22.59;36.36;99004.88;4197521;28;20026;-70
2024/04/01 01:36:42;;;;;;;;;;;;;;;22.58;36.57;99004.06;4196772;28;19928;-70
2024/04/01 01:38:43;;;;;;;;;;;;;;;22.59;36.36;99007.56;4214303;28;19928;-69
2024/04/01 01:40:44;;;;;;;;;;;;;;;22.57;36.46;99009.59;4214142;28;20007;-69
2024/04/01 01:42:45;;;;;;;;;;;;;;;22.57;36.18;99009.59;4214047;28;20385;-70
2024/04/01 01:44:46;;;;;;;;;;;;;;;22.55;36.52;99015.13;4214109;28;20343;-70
2024/04/01 01:46:47;;;;;;;;;;;;;;;22.55;36.23;99011.63;4213883;28;19924;-70
2024/04/01 01:48:48;;;;;;;;;;;;;;;22.53;36.53;99013.63;4213620;28;19924;-70
2024/04/01 01:50:48;;;;;;;;;;;;;;;22.53;36.57;99025.19;4214159;28;19924;-70
2024/04/01 01:52:50;;;;;;;;;;;;;;;22.54;36.44;99018.84;4213830;28;19931;-70
2024/04/01 01:54:51;;;;;;;;;;;;;;;22.54;36.32;99026.03;4213787;28;20101;-70
2024/04/01 01:56:52;;;;;;;;;;;;;;;22.55;36.54;99028.50;4213903;28;20014;-70
2024/04/01 01:58:52;;;;;;;;;;;;;;;22.55;36.50;99023.16;4213737;28;20309;-70
2024/04/01 02:00:53;;;;;;;;;;;;;;;22.57;36.28;99020.31;4213699;28;20062;-70
2024/04/01 02:02:56;;;;;;;;;;;;;;;22.57;36.39;99021.16;4196906;28;19968;-70
2024/04/01 02:04:57;;;;;;;;;;;;;;;22.57;36.59;99031.03;4213650;28;19930;-70
2024/04/01 02:06:58;;;;;;;;;;;;;;;22.56;36.51;99026.69;4213930;28;19928;-70
2024/04/01 02:08:59;;;;;;;;;;;;;;;22.57;36.09;99033.72;4213458;28;20441;-69
2024/04/01 02:11:00;;;;;;;;;;;;;;;22.56;36.25;99032.88;4213632;28;19924;-69
2024/04/01 02:13:00;;;;;;;;;;;;;;;22.53;36.35;99038.59;4213466;28;19931;-70
2024/04/01 02:15:02;;;;;;;;;;;;;;;22.53;36.52;99040.41;4213743;28;19931;-69
2024/04/01 02:17:03;;;;;;;;;;;;;;;22.52;36.53;99042.28;4213092;28;19938;-71
2024/04/01 02:19:04;;;;;;;;;;;;;;;22.52;36.32;99042.28;4213290;28;19931;-69
2024/04/01 02:21:05;;;;;;;;;;;;;;;22.52;36.28;99041.41;4213431;28;19924;-70
2024/04/01 02:23:06;;;;;;;;;;;;;;;22.52;36.21;99036.91;4213447;28;19924;-70
2024/04/01 02:25:07;;;;;;;;;;;;;;;22.52;36.53;99039.59;4213313;28;19928;-70
2024/04/01 02:27:11;;;;;;;;;;;;;;;22.54;36.46;99042.09;4213510;28;19924;-70
2024/04/01 02:29:12;;;;;;;;;;;;;;;22.54;36.58;99044.78;4213577;28;20415;-70
2024/04/01 02:31:13;;;;;;;;;;;;;;;22.53;36.25;99046.63;4212932;28;19928;-70
2024/04/01 02:33:13;;;;;;;;;;;;;;;22.52;36.28;99053.00;4213107;28;19924;-70
2024/04/01 02:35:14;;;;;;;;;;;;;;;22.53;36.36;99051.13;4213162;28;20015;-70
2024/04/01 02:37:15;;;;;;;;;;;;;;;22.52;36.39;99055.66;4213351;28;19924;-70
2024/04/01 02:39:18;;;;;;;;;;;;;;;22.52;36.05;99055.66;4213145;28;19998;-69
2024/04/01 02:41:19;;;;;;;;;;;;;;;22.51;36.36;99054.00;4212997;28;19924;-70
2024/04/01 02:43:20;;;;;;;;;;;;;;;22.51;36.15;99054.00;4213303;28;20001;-71
2024/04/01 02:45:21;;;;;;;;;;;;;;;22.49;36.15;99046.13;4212816;28;20083;-70
2024/04/01 02:47:21;;;;;;;;;;;;;;;22.49;36.49;99046.13;4212598;28;20491;-70
2024/04/01 02:49:22;;;;;;;;;;;;;;;22.51;36.35;99055.84;4212595;28;19928;-70
2024/04/01 02:51:23;;;;;;;;;;;;;;;22.52;36.39;99050.31;4213077;28;19931;-70
2024/04/01 02:53:24;;;;;;;;;;;;;;;22.51;36.22;99051.31;4213011;28;19959;-70
2024/04/01 02:55:25;;;;;;;;;;;;;;;22.51;36.10;99055.84;4212879;28;20060;-70
2024/04/01 02:57:26;;;;;;;;;;;;;;;22.49;36.30;99053.31;4213056;28;20046;-70
2024/04/01 02:59:26;;;;;;;;;;;;;;;22.51;36.22;99059.34;4212875;28;20019;-70
2024/04/01 03:01:27;;;;;;;;;;;;;;;22.51;36.16;99071.94;4212542;28;20284;-70
2024/04/01 03:03:28;;;;;;;;;;;;;;;22.48;36.25;99063.22;4212812;28;19974;-70
2024/04/01 03:05:29;;;;;;;;;;;;;;;22.49;36.03;99075.59;4212875;28;19931;-70
2024/04/01 03:07:30;;;;;;;;;;;;;;;22.48;36.21;99071.25;4212968;28;19963;-70
2024/04/01 03:09:30;;;;;;;;;;;;;;;22.47;36.16;99076.78;4212353;28;20043;-70
2024/04/01 03:11:32;;;;;;;;;;;;;;;22.47;35.96;99077.63;4196300;28;19924;-70
2024/04/01 03:13:33;;;;;;;;;;;;;;;22.47;36.17;99076.78;4212777;28;19934;-70
2024/04/01 03:15:34;;;;;;;;;;;;;;;22.46;36.23;99080.47;4212716;28;19924;-70
2024/04/01 03:17:35;;;;;;;;;;;;;;;22.47;36.35;99082.16;4212752;28;19924;-70
2024/04/01 03:19:35;;;;;;;;;;;;;;;22.46;36.06;99083.97;4212720;28;20009;-70
2024/04/01 03:21:36;;;;;;;;;;;;;;;22.46;36.26;99083.97;4212445;28;19924;-69
2024/04/01 03:23:37;;;;;;;;;;;;;;;22.46;36.20;99089.34;4212714;28;19931;-70
2024/04/01 03:25:38;;;;;;;;;;;;;;;22.46;36.26;99092.00;4212807;28;20040;-69
2024/04/01 03:27:39;;;;;;;;;;;;;;;22.47;35.91;99098.22;4212408;28;19928;-70
2024/04/01 03:29:40;;;;;;;;;;;;;;;22.46;35.89;99094.69;4212288;28;19924;-69
2024/04/01 03:31:41;;;;;;;;;;;;;;;22.46;35.92;99093.88;4212573;28;20015;-69
2024/04/01 03:33:44;;;;;;;;;;;;;;;22.46;35.86;99097.38;4212478;28;20138;-69
2024/04/01 03:35:45;;;;;;;;;;;;;;;22.43;36.00;99097.72;4212470;28;19924;-70
2024/04/01 03:37:46;;;;;;;;;;;;;;;22.43;36.21;99094.19;4195637;28;20045;-70
2024/04/01 03:39:47;;;;;;;;;;;;;;;22.42;36.32;99092.53;4212565;28;20043;-70
2024/04/01 03:41:48;;;;;;;;;;;;;;;22.40;36.09;99095.38;4212467;28;20022;-69
2024/04/01 03:43:49;;;;;;;;;;;;;;;22.42;35.87;99097.88;4212112;28;19990;-70
2024/04/01 03:45:59;;;;;;;;;;;;;;;22.42;36.14;99101.41;4212513;28;19924;-70
2024/04/01 03:48:00;;;;;;;;;;;;;;;22.43;36.12;99104.91;4212487;28;19970;-68
2024/04/01 03:50:02;;;;;;;;;;;;;;;22.43;36.05;99108.44;4212681;28;19924;-69
2024/04/01 03:52:03;;;;;;;;;;;;;;;22.45;35.92;99116.31;4212538;28;19934;-68
2024/04/01 03:54:04;;;;;;;;;;;;;;;22.40;36.10;99100.75;4212457;28;19925;-71
2024/04/01 03:56:05;;;;;;;;;;;;;;;22.42;35.95;99111.28;4212302;28;20014;-69
2024/04/01 03:58:06;;;;;;;;;;;;;;;22.42;35.74;99113.94;4211742;28;19924;-70
2024/04/01 04:00:07;;;;;;;;;;;;;;;22.41;35.85;99110.44;4214488;28;19958;-70
2024/04/01 04:02:08;;;;;;;;;;;;;;;22.41;36.09;99115.81;4215581;28;20453;-69
2024/04/01 04:04:08;;;;;;;;;;;;;;;22.41;35.96;99118.47;4215448;28;19975;-69
2024/04/01 04:06:11;;;;;;;;;;;;;;;22.41;35.77;99121.16;4215647;28;20021;-69
2024/04/01 04:08:12;;;;;;;;;;;;;;;22.39;35.94;99127.69;4215290;28;19930;-70
2024/04/01 04:10:13;;;;;;;;;;;;;;;22.39;35.89;99127.69;4215382;28;19928;-69
2024/04/01 04:12:14;;;;;;;;;;;;;;;22.37;36.03;99122.50;4215177;28;19924;-70
2024/04/01 04:14:20;;;;;;;;;;;;;;;22.37;36.03;99125.16;4215373;28;19924;-69
2024/04/01 04:16:21;;;;;;;;;;;;;;;22.38;35.98;99126.00;4215317;28;19924;-69
2024/04/01 04:18:22;;;;;;;;;;;;;;;22.38;35.93;99123.31;4198382;28;19928;-69
2024/04/01 04:20:23;;;;;;;;;;;;;;;22.36;35.70;99118.13;4215514;28;19990;-70
2024/04/01 04:22:24;;;;;;;;;;;;;;;22.37;35.99;99121.63;4215118;28;20011;-70
2024/04/01 04:24:25;;;;;;;;;;;;;;;22.37;36.09;99127.84;4215202;28;20374;-70
2024/04/01 04:26:26;;;;;;;;;;;;;;;22.36;35.70;99120.81;4215513;28;19924;-69
2024/04/01 04:28:27;;;;;;;;;;;;;;;22.35;35.66;99121.81;4198063;28;19946;-69
2024/04/01 04:30:28;;;;;;;;;;;;;;;22.36;35.81;99122.63;4215390;28;19925;-69
2024/04/01 04:32:28;;;;;;;;;;;;;;;22.35;36.08;99124.50;4215106;28;20351;-70
2024/04/01 04:34:29;;;;;;;;;;;;;;;22.35;35.55;99116.47;4215005;28;20023;-70
2024/04/01 04:36:30;;;;;;;;;;;;;;;22.34;35.69;99114.78;4215058;28;20324;-70
2024/04/01 04:38:31;;;;;;;;;;;;;;;22.32;35.87;99122.16;4215274;28;20090;-70
2024/04/01 04:40:32;;;;;;;;;;;;;;;22.32;35.56;99117.66;4215180;28;19955;-69
2024/04/01 04:42:33;;;;;;;;;;;;;;;22.32;35.92;99117.66;4214718;28;19935;-70
2024/04/01 04:44:34;;;;;;;;;;;;;;;22.31;35.69;99121.31;4215021;28;19931;-70
2024/04/01 04:46:34;;;;;;;;;;;;;;;22.32;35.91;99123.00;4198181;28;19928;-70
2024/04/01 04:48:35;;;;;;;;;;;;;;;22.34;35.91;99125.50;4215178;28;20360;-70
2024/04/01 04:50:36;;;;;;;;;;;;;;;22.34;35.65;99126.31;4214949;28;19924;-70
2024/04/01 04:52:37;;;;;;;;;;;;;;;22.36;35.68;99130.69;4215017;28;19979;-69
2024/04/01 04:54:38;;;;;;;;;;;;;;;22.35;35.67;99132.53;4214659;28;20377;-70
2024/04/01 04:56:39;;;;;;;;;;;;;;;22.33;35.79;99132.72;4197844;28;19971;-69
2024/04/01 04:58:41;;;;;;;;;;;;;;;22.32;35.56;99133.72;4214591;28;19930;-69
2024/04/01 05:00:42;;;;;;;;;;;;;;;22.31;35.64;99140.06;4214803;28;20353;-69
2024/04/01 05:02:42;;;;;;;;;;;;;;;22.31;35.55;99133.88;4214707;28;19928;-69
2024/04/01 05:04:44;;;;;;;;;;;;;;;22.33;35.80;99138.06;4214914;28;19924;-70
2024/04/01 05:06:45;;;;;;;;;;;;;;;22.31;35.75;99145.44;4214756;28;20435;-70
2024/04/01 05:08:45;;;;;;;;;;;;;;;22.31;35.88;99148.09;4214592;28;19924;-70
2024/04/01 05:10:49;;;;;;;;;;;;;;;22.29;35.93;99142.06;4213488;28;19998;-70
2024/04/01 05:12:51;;;;;;;;;;;;;;;22.31;35.87;99141.94;4214542;28;19924;-70
2024/04/01 05:14:51;;;;;;;;;;;;;;;22.30;35.64;99137.56;4214444;28;19928;-69
2024/04/01 05:16:52;;;;;;;;;;;;;;;22.32;35.54;99143.56;4214412;28;20536;-69
2024/04/01 05:18:53;;;;;;;;;;;;;;;22.32;35.80;99147.09;4214383;28;19935;-70
2024/04/01 05:20:54;;;;;;;;;;;;;;;22.33;35.56;99153.28;4214414;28;19949;-70
2024/04/01 05:22:55;;;;;;;;;;;;;;;22.32;35.60;99157.81;4214167;28;19924;-70
2024/04/01 05:24:56;;;;;;;;;;;;;;;22.31;35.32;99158.00;4214076;28;19983;-69
2024/04/01 05:26:57;;;;;;;;;;;;;;;22.31;35.60;99161.50;4214230;28;19924;-70
2024/04/01 05:28:59;;;;;;;;;;;;;;;22.31;35.55;99168.72;4214126;28;19935;-70
2024/04/01 05:30:59;;;;;;;;;;;;;;;22.30;35.89;99173.22;4214371;28;19946;-70
2024/04/01 05:33:03;;;;;;;;;;;;;;;22.28;35.89;99166.34;4214174;28;19924;-70
2024/04/01 05:35:05;;;;;;;;;;;;;;;22.28;35.92;99169.03;4214111;28;19924;-70
2024/04/01 05:37:06;;;;;;;;;;;;;;;22.27;35.76;99164.69;4214072;28;19924;-70
2024/04/01 05:39:07;;;;;;;;;;;;;;;22.27;35.91;99172.72;4213852;28;19931;-69
2024/04/01 05:41:08;;;;;;;;;;;;;;;22.27;35.68;99178.91;4214111;28;19931;-71
2024/04/01 05:43:08;;;;;;;;;;;;;;;22.28;35.87;99179.75;4214195;28;19928;-69
2024/04/01 05:45:09;;;;;;;;;;;;;;;22.28;35.90;99188.59;4213849;28;19932;-70
2024/04/01 05:47:10;;;;;;;;;;;;;;;22.28;35.81;99174.38;4213964;28;19971;-70
2024/04/01 05:49:11;;;;;;;;;;;;;;;22.29;35.57;99182.25;4213920;28;19928;-70
2024/04/01 05:51:12;;;;;;;;;;;;;;;22.29;35.94;99184.09;4214011;28;20321;-70
2024/04/01 05:53:13;;;;;;;;;;;;;;;22.27;35.65;99186.09;4214162;28;20042;-70
2024/04/01 05:55:14;;;;;;;;;;;;;;;22.26;35.79;99187.09;4213431;28;19924;-70
2024/04/01 05:57:15;;;;;;;;;;;;;;;22.25;35.57;99185.41;4213895;28;19971;-70
2024/04/01 05:59:15;;;;;;;;;;;;;;;22.24;35.90;99189.94;4213627;28;19925;-70
2024/04/01 06:01:16;;;;;;;;;;;;;;;22.22;35.84;99191.94;4213530;28;20456;-69
2024/04/01 06:03:18;;;;;;;;;;;;;;;22.23;35.54;99203.53;4213715;28;19928;-70
2024/04/01 06:05:19;;;;;;;;;;;;;;;22.22;35.53;99191.94;4213777;28;19924;-70
2024/04/01 06:07:20;;;;;;;;;;;;;;;22.24;35.61;99197.16;4213604;28;19975;-69
2024/04/01 06:09:21;;;;;;;;;;;;;;;22.25;35.52;99196.13;4213105;28;19924;-69
2024/04/01 06:11:22;;;;;;;;;;;;;;;22.24;35.88;99197.16;4213589;28;20403;-69
2024/04/01 06:13:22;;;;;;;;;;;;;;;22.24;35.79;99206.03;4196895;28;19928;-69
2024/04/01 06:15:23;;;;;;;;;;;;;;;22.25;35.38;99206.84;4213697;28;19932;-69
2024/04/01 06:17:24;;;;;;;;;;;;;;;22.24;35.52;99198.00;4196808;28;19933;-69
2024/04/01 06:19:25;;;;;;;;;;;;;;;22.24;35.64;99199.84;4213572;28;19924;-69
2024/04/01 06:21:26;;;;;;;;;;;;;;;22.26;35.64;99205.84;4213366;28;19924;-70
2024/04/01 06:23:27;;;;;;;;;;;;;;;22.25;35.45;99213.06;4212683;28;19956;-69
2024/04/01 06:25:28;;;;;;;;;;;;;;;22.23;35.86;99215.06;4213436;28;20420;-69
2024/04/01 06:27:29;;;;;;;;;;;;;;;22.23;35.73;99214.22;4213497;28;19961;-70
2024/04/01 06:29:30;;;;;;;;;;;;;;;22.22;35.46;99212.56;4213492;28;19924;-69
2024/04/01 06:31:32;;;;;;;;;;;;;;;22.21;35.74;99216.22;4213177;28;19924;-69
2024/04/01 06:33:33;;;;;;;;;;;;;;;22.19;35.75;99216.41;4213283;28;19931;-70
2024/04/01 06:35:33;;;;;;;;;;;;;;;22.20;35.58;99219.91;4213238;28;19928;-69
2024/04/01 06:37:34;;;;;;;;;;;;;;;22.18;35.55;99220.91;4212843;28;19954;-69
2024/04/01 06:39:35;;;;;;;;;;;;;;;22.21;35.34;99213.56;4213093;28;19924;-69
2024/04/01 06:41:36;;;;;;;;;;;;;;;22.19;35.51;99221.75;4196487;28;20011;-68
2024/04/01 06:43:37;;;;;;;;;;;;;;;22.21;35.40;99221.59;4213270;28;19932;-70
2024/04/01 06:45:38;;;;;;;;;;;;;;;22.19;35.50;99227.13;4196477;28;19937;-69
2024/04/01 06:47:39;;;;;;;;;;;;;;;22.18;35.63;99228.13;4212949;28;19960;-69
2024/04/01 06:49:40;;;;;;;;;;;;;;;22.17;35.49;99234.47;4212948;28;19931;-69
2024/04/01 06:51:41;;;;;;;;;;;;;;;22.15;35.52;99233.78;4212818;28;19924;-69
2024/04/01 06:53:42;;;;;;;;;;;;;;;22.15;35.50;99236.47;4212887;28;20030;-70
2024/04/01 06:55:46;;;;;;;;;;;;;;;22.14;35.32;99241.00;4212782;28;19936;-71
2024/04/01 06:57:47;;;;;;;;;;;;;;;22.14;35.48;99243.69;4212948;28;19924;-70
2024/04/01 06:59:48;;;;;;;;;;;;;;;22.12;35.40;99247.53;4213023;28;19931;-71
2024/04/01 07:01:49;;;;;;;;;;;;;;;22.12;35.52;99250.19;4212837;28;19954;-71
2024/04/01 07:03:50;;;;;;;;;;;;;;;22.12;35.52;99259.06;4212853;28;20023;-70
2024/04/01 07:05:50;;;;;;;;;;;;;;;22.12;35.52;99251.03;4212862;28;19924;-72
2024/04/01 07:07:51;;;;;;;;;;;;;;;22.12;35.66;99269.78;4212441;28;20376;-71
2024/04/01 07:09:52;;;;;;;;;;;;;;;22.13;35.64;99274.13;4212598;28;20006;-71
2024/04/01 07:11:53;;;;;;;;;;;;;;;22.12;35.62;99271.63;4212526;28;20447;-71
2024/04/01 07:13:54;;;;;;;;;;;;;;;22.12;35.39;99267.09;4213049;28;19942;-71
2024/04/01 07:15:56;;;;;;;;;;;;;;;22.11;35.35;99273.44;4212731;28;19928;-70
2024/04/01 07:17:57;;;;;;;;;;;;;;;22.12;35.57;99282.34;4212694;28;19934;-70
2024/04/01 07:19:58;;;;;;;;;;;;;;;22.10;35.46;99281.66;4212596;28;19924;-71
2024/04/01 07:21:59;;;;;;;;;;;;;;;22.09;35.39;99274.63;4212100;28;19931;-70
2024/04/01 07:24:00;;;;;;;;;;;;;;;22.07;35.56;99287.34;4212593;28;19925;-71
2024/04/01 07:26:01;;;;;;;;;;;;;;;22.07;35.25;99288.19;4212758;28;19924;-73
2024/04/01 07:28:02;;;;;;;;;;;;;;;22.06;35.23;99294.53;4195844;28;19925;-71
2024/04/01 07:30:04;;;;;;;;;;;;;;;22.07;35.31;99298.88;4212868;28;19928;-70
2024/04/01 07:32:05;;;;;;;;;;;;;;;22.08;35.40;99300.56;4212400;28;20335;-71
2024/04/01 07:34:06;;;;;;;;;;;;;;;22.10;35.39;99300.41;4211917;28;19927;-69
2024/04/01 07:36:07;;;;;;;;;;;;;;;22.12;35.59;99303.75;4212429;28;19924;-69
2024/04/01 07:38:08;;;;;;;;;;;;;;;22.13;35.53;99311.63;4212769;28;19924;-70
2024/04/01 07:40:09;;;;;;;;;;;;;;;22.11;35.25;99308.25;4212485;28;19975;-69
2024/04/01 07:42:10;;;;;;;;;;;;;;;22.12;35.25;99317.13;4212639;28;19950;-70
2024/04/01 07:44:11;;;;;;;;;;;;;;;22.09;35.51;99314.78;4212417;28;19936;-70
2024/04/01 07:46:11;;;;;;;;;;;;;;;22.10;35.27;99319.13;4212353;28;19982;-70
2024/04/01 07:48:13;;;;;;;;;;;;;;;22.07;35.45;99320.31;4212527;28;19974;-70
2024/04/01 07:50:13;;;;;;;;;;;;;;;22.09;35.30;99323.66;4212179;28;19928;-71
2024/04/01 07:52:14;;;;;;;;;;;;;;;22.09;35.53;99328.16;4212484;28;19924;-70
2024/04/01 07:54:15;;;;;;;;;;;;;;;22.07;35.41;99333.69;4212405;28;19930;-70
2024/04/01 07:56:16;;;;;;;;;;;;;;;22.07;35.15;99330.19;4212628;28;20023;-71
2024/04/01 07:58:17;;;;;;;;;;;;;;;22.08;35.38;99332.69;4212310;28;19986;-70
2024/04/01 08:00:18;;;;;;;;;;;;;;;22.08;35.63;99343.41;4212264;28;19940;-70
2024/04/01 08:02:18;;;;;;;;;;;;;;;22.10;35.32;99340.56;4212385;28;19978;-69
2024/04/01 08:04:20;;;;;;;;;;;;;;;22.11;35.37;99342.25;4212045;28;19924;-71
2024/04/01 08:06:21;;;;;;;;;;;;;;;22.14;35.46;99355.28;4212260;28;20420;-69
2024/04/01 08:08:21;;;;;;;;;;;;;;;22.12;35.54;99359.97;4212456;28;19924;-69
2024/04/01 08:10:22;;;;;;;;;;;;;;;22.10;35.36;99359.31;4212158;28;20380;-71
2024/04/01 08:12:23;;;;;;;;;;;;;;;22.08;35.36;99367.50;4212227;28;19990;-70
2024/04/01 08:14:24;;;;;;;;;;;;;;;22.08;35.30;99370.19;4212416;28;20011;-70
2024/04/01 08:16:25;;;;;;;;;;;;;;;22.11;35.48;99379.72;4212111;28;19932;-70
2024/04/01 08:18:26;;;;;;;;;;;;;;;22.09;35.25;99379.03;4212401;28;19924;-70
2024/04/01 08:20:27;;;;;;;;;;;;;;;22.07;35.27;99384.56;4212047;28;19924;-70
2024/04/01 08:22:27;;;;;;;;;;;;;;;22.06;35.43;99382.06;4195342;28;20050;-70
2024/04/01 08:24:28;;;;;;;;;;;;;;;22.07;35.14;99387.25;4246089;28;19966;-70
2024/04/01 08:26:29;;;;;;;;;;;;;;;22.08;35.53;99396.94;4211996;28;19924;-71
2024/04/01 08:28:30;;;;;;;;;;;;;;;22.07;35.54;99395.28;4212542;28;19964;-70
2024/04/01 08:30:31;;;;;;;;;;;;;;;22.10;35.52;99407.50;4212170;28;20412;-70
2024/04/01 08:32:32;;;;;;;;;;;;;;;22.09;35.47;99405.81;4211988;28;19975;-70
2024/04/01 08:34:33;;;;;;;;;;;;;;;22.08;35.35;99402.31;4211834;28;19924;-69
2024/04/01 08:36:35;;;;;;;;;;;;;;;22.09;35.40;99408.50;4212270;28;20015;-70
2024/04/01 08:38:36;;;;;;;;;;;;;;;22.09;35.38;99412.03;4211996;28;19931;-69
2024/04/01 08:40:42;;;;;;;;;;;;;;;22.09;35.26;99424.56;4212192;28;20328;-69
2024/04/01 08:42:44;;;;;;;;;;;;;;;22.11;35.40;99423.38;4212162;28;20274;-69
2024/04/01 08:44:46;;;;;;;;;;;;;;;22.09;35.42;99429.91;4195497;28;19925;-70
2024/04/01 08:46:51;;;;;;;;;;;;;;;22.12;35.32;99432.28;4213605;28;20318;-69
2024/04/01 08:48:55;;;;;;;;;;;;;;;22.12;35.14;99427.75;4214616;28;20435;-69
2024/04/01 08:50:57;;;;;;;;;;;;;;;22.12;35.29;99429.59;4215068;28;20038;-69
2024/04/01 08:53:02;;;;;;;;;;;;;;;22.11;35.59;99436.78;4214824;28;19925;-70
2024/04/01 08:55:04;;;;;;;;;;;;;;;22.08;35.43;99433.59;4214591;28;19935;-70
2024/04/01 08:57:05;;;;;;;;;;;;;;;22.08;35.53;99439.78;4214775;28;19924;-69
2024/04/01 08:59:09;;;;;;;;;;;;;;;22.09;35.47;99438.78;4198002;28;20393;-70
2024/04/01 09:01:10;;;;;;;;;;;;;;;22.11;35.57;99443.97;4214751;28;19931;-70
2024/04/01 09:03:11;;;;;;;;;;;;;;;22.11;35.16;99443.97;4214516;28;20401;-70
2024/04/01 09:05:12;;;;;;;;;;;;;;;22.12;35.39;99451.03;4214494;28;19924;-69
2024/04/01 09:07:15;;;;;;;;;;;;;;;22.12;35.38;99451.03;4248790;27;19968;-71
2024/04/01 09:09:16;;;;;;;;;;;;;;;22.11;35.57;99447.47;4214450;28;19949;-70
2024/04/01 09:11:17;;;;;;;;;;;;;;;22.13;35.19;99452.69;4214574;28;19958;-69
2024/04/01 09:13:18;;;;;;;;;;;;;;;22.09;35.32;99452.19;4214748;28;19924;-68
2024/04/01 09:15:21;;;;;;;;;;;;;;;22.11;35.50;99454.69;4214303;28;19970;-68
2024/04/01 09:17:23;;;;;;;;;;;;;;;22.10;35.38;99455.69;4214066;28;19924;-69
2024/04/01 09:19:24;;;;;;;;;;;;;;;22.10;35.38;99459.22;4214276;28;20405;-70
2024/04/01 09:21:25;;;;;;;;;;;;;;;22.09;35.29;99454.00;4214618;28;19924;-69
2024/04/01 09:23:26;;;;;;;;;;;;;;;22.11;35.51;99466.22;4214386;28;20051;-70
2024/04/01 09:25:27;;;;;;;;;;;;;;;22.12;35.69;99465.22;4214400;28;19964;-69
2024/04/01 09:27:27;;;;;;;;;;;;;;;22.13;35.32;99464.25;4214159;28;19924;-70
2024/04/01 09:29:30;;;;;;;;;;;;;;;22.14;35.52;99471.28;4214125;28;19938;-69
2024/04/01 09:31:31;;;;;;;;;;;;;;;22.15;35.36;99466.75;4214070;28;19924;-70
2024/04/01 09:33:32;;;;;;;;;;;;;;;22.18;35.45;99474.47;4214226;28;20015;-69
2024/04/01 09:35:33;;;;;;;;;;;;;;;22.18;35.38;99477.16;4197474;28;20019;-70
2024/04/01 09:37:34;;;;;;;;;;;;;;;22.18;35.66;99488.69;4214092;28;19935;-70
2024/04/01 09:39:35;;;;;;;;;;;;;;;22.18;35.37;99490.53;4214001;28;19924;-70
2024/04/01 09:41:36;;;;;;;;;;;;;;;22.18;35.23;99493.22;4213979;28;19974;-69
2024/04/01 09:43:37;;;;;;;;;;;;;;;22.17;35.55;99487.00;4213964;28;19967;-68
2024/04/01 09:45:38;;;;;;;;;;;;;;;22.17;35.38;99497.72;4213724;28;20014;-69
2024/04/01 09:47:40;;;;;;;;;;;;;;;22.15;35.68;99499.75;4213836;28;20281;-67
2024/04/01 09:49:43;;;;;;;;;;;;;;;22.13;35.56;99496.38;4213932;28;19932;-68
2024/04/01 09:51:45;;;;;;;;;;;;;;;22.15;35.63;99497.06;4213845;28;19998;-70
2024/04/01 09:53:48;;;;;;;;;;;;;;;22.16;35.49;99506.78;4214048;28;19924;-69
2024/04/01 09:55:49;;;;;;;;;;;;;;;22.18;35.63;99512.78;4213878;28;20324;-69
2024/04/01 09:58:04;;;;;;;;;;;;;;;22.20;35.42;99515.34;4213500;28;19939;-68
2024/04/01 10:00:15;;;;;;;;;;;;;;;22.21;35.38;99516.16;4213338;28;20368;-69
2024/04/01 10:02:18;;;;;;;;;;;;;;;22.17;35.47;99516.47;4213735;28;20428;-68
2024/04/01 10:04:25;;;;;;;;;;;;;;;22.19;35.43;99516.31;4214025;28;19928;-69
2024/04/01 10:06:28;;;;;;;;;;;;;;;22.18;35.68;99522.69;4213775;28;19931;-69
2024/04/01 10:08:41;;;;;;;;;;;;;;;22.16;35.60;99520.16;4213497;28;19931;-70
2024/04/01 10:11:01;;;;;;;;;;;;;;;22.16;35.62;99525.53;4213584;28;19924;-71
2024/04/01 10:13:20;;;;;;;;;;;;;;;22.14;35.55;99527.50;4213783;28;20313;-70
2024/04/01 10:15:39;;;;;;;;;;;;;;;22.14;35.76;99527.50;4213017;28;19931;-70
2024/04/01 10:17:52;;;;;;;;;;;;;;;22.15;35.70;99534.56;4213820;28;20354;-71
2024/04/01 10:20:13;;;;;;;;;;;;;;;22.15;35.73;99536.38;4213473;28;20050;-69
2024/04/01 10:22:14;;;;;;;;;;;;;;;22.15;35.58;99539.91;4162917;28;19948;-71
2024/04/01 10:24:24;;;;;;;;;;;;;;;22.16;35.81;99538.06;4162603;28;19929;-69
2024/04/01 10:26:33;;;;;;;;;;;;;;;22.16;35.71;99543.41;4162894;28;19932;-72
2024/04/01 10:28:43;;;;;;;;;;;;;;;22.18;35.38;99549.47;4162930;28;19929;-69
2024/04/01 10:31:02;;;;;;;;;;;;;;;22.15;35.64;99550.63;4162388;28;19930;-70
2024/04/01 10:33:19;;;;;;;;;;;;;;;22.16;35.64;99546.09;4162634;28;19929;-69
2024/04/01 10:35:31;;;;;;;;;;;;;;;22.14;35.64;99548.06;4162501;28;19925;-71